createdAt,value
2018-05-06T00:01:49.824Z,19.92
2018-05-06T00:04:18.625Z,19.95
2018-05-06T00:06:48.169Z,19.91
2018-05-06T00:09:16.986Z,19.75
2018-05-06T00:11:45.809Z,19.64
2018-05-06T00:14:14.544Z,19.75
2018-05-06T00:16:44.139Z,20.17
2018-05-06T00:19:12.890Z,19.99
2018-05-06T00:21:41.645Z,19.55
2018-05-06T00:24:12.233Z,19.75
2018-05-06T00:26:41.453Z,19.83
2018-05-06T00:29:12.072Z,19.53
2018-05-06T00:31:41.504Z,19.77
2018-05-06T00:34:12.155Z,19.98
2018-05-06T00:36:41.524Z,20.21
2018-05-06T00:39:10.270Z,19.98
2018-05-06T00:41:39.106Z,20.35
2018-05-06T00:44:07.881Z,20.19
2018-05-06T00:46:36.633Z,20.32
2018-05-06T00:49:06.168Z,20.10
2018-05-06T00:51:34.933Z,20.32
2018-05-06T00:54:15.330Z,20.35
2018-05-06T00:56:44.087Z,20.35
2018-05-06T00:59:12.862Z,20.27
2018-05-06T01:01:41.837Z,20.44
2018-05-06T01:04:11.678Z,20.56
2018-05-06T01:06:40.533Z,20.42
2018-05-06T01:09:09.322Z,20.49
2018-05-06T01:11:38.162Z,20.45
2018-05-06T01:14:06.981Z,20.37
2018-05-06T01:16:35.796Z,20.37
2018-05-06T01:19:04.681Z,20.07
2018-05-06T01:21:34.196Z,19.98
2018-05-06T01:24:02.972Z,19.91
2018-05-06T01:26:31.737Z,20.25
2018-05-06T01:29:00.482Z,20.12
2018-05-06T01:31:29.985Z,19.69
2018-05-06T01:33:58.770Z,19.06
2018-05-06T01:36:27.494Z,18.94
2018-05-06T01:38:56.282Z,18.73
2018-05-06T01:41:25.805Z,18.60
2018-05-06T01:43:54.559Z,18.36
2018-05-06T01:46:23.360Z,18.38
2018-05-06T01:48:52.124Z,17.95
2018-05-06T01:51:20.884Z,18.16
2018-05-06T01:53:50.411Z,18.16
2018-05-06T01:56:19.158Z,18.59
2018-05-06T01:58:47.933Z,18.59
2018-05-06T02:01:16.661Z,18.32
2018-05-06T02:03:45.425Z,18.33
2018-05-06T02:06:14.194Z,18.37
2018-05-06T02:08:42.926Z,18.08
2018-05-06T02:11:12.456Z,18.26
2018-05-06T02:13:42.300Z,17.49
2018-05-06T02:16:11.051Z,17.33
2018-05-06T02:18:39.884Z,16.90
2018-05-06T02:21:08.657Z,17.06
2018-05-06T02:23:37.423Z,16.68
2018-05-06T02:26:06.149Z,16.47
2018-05-06T02:28:34.907Z,17.24
2018-05-06T02:31:04.134Z,17.41
2018-05-06T02:33:32.921Z,17.34
2018-05-06T02:36:01.661Z,17.20
2018-05-06T02:38:30.402Z,17.28
2018-05-06T02:40:59.151Z,17.24
2018-05-06T02:43:27.934Z,17.27
2018-05-06T02:45:56.701Z,16.78
2018-05-06T02:48:25.430Z,16.96
2018-05-06T02:50:54.172Z,17.13
2018-05-06T02:53:23.728Z,17.28
2018-05-06T02:55:52.515Z,16.64
2018-05-06T02:58:21.258Z,16.78
2018-05-06T03:00:50.013Z,17.24
2018-05-06T03:03:18.880Z,17.19
2018-05-06T03:05:47.650Z,17.12
2018-05-06T03:08:16.388Z,16.96
2018-05-06T03:10:45.171Z,17.07
2018-05-06T03:13:13.934Z,17.14
2018-05-06T03:15:42.717Z,17.04
2018-05-06T03:18:11.515Z,16.89
2018-05-06T03:20:40.253Z,17.18
2018-05-06T03:23:08.980Z,16.52
2018-05-06T03:25:37.901Z,16.52
2018-05-06T03:28:06.706Z,16.81
2018-05-06T03:30:35.448Z,16.92
2018-05-06T03:33:04.972Z,16.56
2018-05-06T03:35:33.721Z,16.85
2018-05-06T03:38:02.520Z,16.87
2018-05-06T03:40:32.083Z,17.13
2018-05-06T03:43:00.868Z,16.86
2018-05-06T03:45:29.629Z,16.68
2018-05-06T03:47:59.152Z,16.60
2018-05-06T03:50:27.949Z,16.55
2018-05-06T03:52:56.792Z,16.56
2018-05-06T03:55:25.637Z,16.81
2018-05-06T03:58:06.012Z,16.59
2018-05-06T04:00:42.217Z,16.65
2018-05-06T04:03:11.752Z,17.04
2018-05-06T04:05:40.590Z,16.68
2018-05-06T04:08:09.308Z,16.79
2018-05-06T04:10:38.199Z,16.99
2018-05-06T04:13:06.941Z,17.00
2018-05-06T04:15:35.772Z,17.40
2018-05-06T04:18:04.567Z,17.79
2018-05-06T04:20:33.357Z,17.66
2018-05-06T04:23:02.170Z,17.59
2018-05-06T04:25:30.980Z,17.44
2018-05-06T04:27:59.741Z,17.49
2018-05-06T04:30:28.531Z,17.44
2018-05-06T04:32:58.048Z,17.41
2018-05-06T04:35:26.859Z,17.42
2018-05-06T04:37:55.726Z,17.63
2018-05-06T04:40:24.554Z,17.74
2018-05-06T04:42:54.184Z,17.70
2018-05-06T04:45:22.945Z,17.84
2018-05-06T04:47:51.813Z,17.95
2018-05-06T04:50:20.572Z,17.96
2018-05-06T04:52:50.091Z,18.03
2018-05-06T04:55:18.835Z,18.08
2018-05-06T04:57:47.591Z,18.07
2018-05-06T05:00:16.504Z,18.18
2018-05-06T05:02:45.242Z,18.07
2018-05-06T05:05:14.037Z,18.42
2018-05-06T05:07:43.659Z,18.38
2018-05-06T05:10:13.515Z,18.40
2018-05-06T05:12:42.243Z,18.29
2018-05-06T05:15:12.496Z,18.18
2018-05-06T05:17:41.276Z,18.24
2018-05-06T05:20:10.059Z,18.13
2018-05-06T05:22:38.808Z,18.28
2018-05-06T05:25:08.348Z,18.42
2018-05-06T05:27:37.156Z,18.39
2018-05-06T05:30:06.334Z,18.51
2018-05-06T05:32:35.116Z,18.53
2018-05-06T05:35:04.659Z,18.60
2018-05-06T05:37:34.625Z,18.55
2018-05-06T05:40:03.368Z,18.39
2018-05-06T05:42:32.152Z,18.52
2018-05-06T05:45:01.660Z,18.77
2018-05-06T05:47:31.170Z,18.84
2018-05-06T05:49:59.948Z,19.12
2018-05-06T05:52:28.726Z,19.07
2018-05-06T05:54:57.476Z,18.85
2018-05-06T05:57:26.213Z,18.90
2018-05-06T05:59:54.966Z,18.69
2018-05-06T06:02:23.706Z,18.75
2018-05-06T06:04:53.502Z,18.89
2018-05-06T06:07:22.567Z,18.89
2018-05-06T06:09:52.963Z,19.59
2018-05-06T06:12:21.715Z,19.57
2018-05-06T06:14:51.501Z,19.48
2018-05-06T06:17:20.277Z,19.70
2018-05-06T06:19:49.788Z,20.02
2018-05-06T06:22:19.337Z,20.13
2018-05-06T06:24:48.115Z,20.35
2018-05-06T06:27:16.846Z,20.54
2018-05-06T06:29:45.600Z,20.60
2018-05-06T06:32:14.438Z,20.70
2018-05-06T06:34:45.833Z,20.97
2018-05-06T06:37:14.582Z,21.10
2018-05-06T06:39:44.866Z,21.21
2018-05-06T06:42:14.288Z,21.26
2018-05-06T06:44:44.305Z,20.88
2018-05-06T06:47:13.068Z,21.02
2018-05-06T06:49:42.468Z,21.22
2018-05-06T06:52:11.234Z,21.35
2018-05-06T06:54:39.985Z,21.04
2018-05-06T06:57:09.538Z,20.96
2018-05-06T06:59:39.037Z,21.72
2018-05-06T07:02:07.762Z,21.84
2018-05-06T07:04:36.508Z,22.05
2018-05-06T07:07:08.171Z,22.23
2018-05-06T07:09:37.750Z,22.21
2018-05-06T07:12:08.055Z,22.26
2018-05-06T07:14:42.153Z,22.19
2018-05-06T07:17:10.903Z,22.51
2018-05-06T07:19:39.875Z,22.78
2018-05-06T07:22:09.424Z,23.05
2018-05-06T07:24:38.988Z,22.99
2018-05-06T07:27:08.314Z,22.99
2018-05-06T07:29:38.315Z,22.96
2018-05-06T07:32:07.103Z,22.90
2018-05-06T07:34:36.665Z,23.00
2018-05-06T07:37:05.449Z,22.83
2018-05-06T07:39:34.263Z,23.03
2018-05-06T07:42:03.022Z,23.11
2018-05-06T07:44:31.789Z,23.17
2018-05-06T07:47:02.268Z,23.00
2018-05-06T07:49:31.549Z,23.11
2018-05-06T07:52:01.256Z,23.19
2018-05-06T07:54:30.897Z,23.10
2018-05-06T07:56:59.652Z,22.76
2018-05-06T07:59:29.547Z,22.88
2018-05-06T08:01:59.854Z,23.08
2018-05-06T08:04:29.007Z,23.17
2018-05-06T08:06:57.757Z,23.20
2018-05-06T08:09:28.034Z,23.11
2018-05-06T08:12:00.150Z,23.43
2018-05-06T08:14:30.133Z,23.47
2018-05-06T08:16:59.680Z,23.29
2018-05-06T08:19:29.096Z,22.44
2018-05-06T08:21:58.017Z,22.68
2018-05-06T08:24:27.510Z,22.58
2018-05-06T08:26:56.528Z,22.94
2018-05-06T08:29:27.010Z,22.62
2018-05-06T08:31:56.151Z,22.93
2018-05-06T08:34:26.216Z,23.35
2018-05-06T08:36:55.026Z,23.37
2018-05-06T08:39:24.602Z,23.61
2018-05-06T08:41:54.153Z,23.85
2018-05-06T08:44:23.844Z,23.78
2018-05-06T08:46:52.601Z,23.65
2018-05-06T08:49:21.359Z,23.39
2018-05-06T08:51:50.438Z,23.29
2018-05-06T08:54:20.186Z,23.87
2018-05-06T08:56:49.058Z,23.81
2018-05-06T08:59:18.904Z,24.06
2018-05-06T09:01:47.628Z,24.25
2018-05-06T09:04:16.452Z,24.07
2018-05-06T09:06:45.418Z,24.42
2018-05-06T09:09:14.169Z,25.22
2018-05-06T09:11:42.954Z,25.49
2018-05-06T09:14:11.748Z,25.88
2018-05-06T09:16:41.116Z,25.53
2018-05-06T09:19:11.477Z,25.62
2018-05-06T09:21:40.294Z,26.25
2018-05-06T09:24:11.140Z,26.33
2018-05-06T09:26:39.939Z,26.50
2018-05-06T09:29:09.342Z,26.53
2018-05-06T09:31:38.147Z,26.35
2018-05-06T09:34:08.743Z,26.61
2018-05-06T09:36:37.816Z,26.73
2018-05-06T09:39:07.379Z,26.91
2018-05-06T09:41:36.138Z,27.34
2018-05-06T09:44:05.398Z,27.13
2018-05-06T09:46:34.262Z,27.57
2018-05-06T09:49:04.500Z,27.47
2018-05-06T09:51:34.984Z,27.49
2018-05-06T09:54:05.483Z,27.30
2018-05-06T09:56:34.234Z,27.31
2018-05-06T09:59:05.126Z,27.39
2018-05-06T10:01:37.476Z,27.97
2018-05-06T10:04:06.585Z,28.04
2018-05-06T10:06:36.767Z,28.16
2018-05-06T10:09:06.296Z,27.93
2018-05-06T10:11:35.818Z,28.12
2018-05-06T10:14:04.555Z,28.64
2018-05-06T10:16:34.116Z,28.77
2018-05-06T10:19:02.866Z,28.60
2018-05-06T10:21:34.723Z,29.07
2018-05-06T10:24:03.484Z,28.72
2018-05-06T10:26:32.223Z,29.18
2018-05-06T10:29:01.565Z,29.32
2018-05-06T10:31:30.601Z,29.60
2018-05-06T10:33:59.346Z,29.63
2018-05-06T10:36:28.091Z,29.73
2018-05-06T10:38:56.815Z,29.86
2018-05-06T10:41:25.574Z,29.49
2018-05-06T10:43:55.857Z,29.91
2018-05-06T10:46:24.555Z,30.09
2018-05-06T10:48:53.778Z,29.54
2018-05-06T10:51:23.365Z,29.84
2018-05-06T10:53:53.318Z,29.89
2018-05-06T10:56:23.521Z,30.10
2018-05-06T10:58:52.629Z,29.95
2018-05-06T11:01:22.184Z,30.08
2018-05-06T11:03:51.019Z,30.13
2018-05-06T11:06:20.515Z,29.81
2018-05-06T11:08:49.302Z,30.00
2018-05-06T11:11:18.826Z,30.31
2018-05-06T11:13:47.606Z,30.86
2018-05-06T11:16:16.535Z,30.83
2018-05-06T11:18:45.329Z,30.98
2018-05-06T11:21:14.074Z,29.94
2018-05-06T11:23:51.841Z,29.85
2018-05-06T11:26:20.621Z,29.91
2018-05-06T11:28:49.610Z,29.55
2018-05-06T11:31:18.472Z,29.28
2018-05-06T11:33:47.239Z,29.85
2018-05-06T11:36:16.660Z,30.25
2018-05-06T11:38:45.517Z,30.61
2018-05-06T11:41:14.997Z,30.02
2018-05-06T11:43:43.778Z,30.15
2018-05-06T11:46:12.624Z,30.14
2018-05-06T11:48:41.412Z,30.24
2018-05-06T11:51:10.321Z,30.15
2018-05-06T11:53:39.062Z,30.13
2018-05-06T11:56:08.604Z,30.64
2018-05-06T11:58:37.348Z,30.90
2018-05-06T12:01:06.110Z,31.11
2018-05-06T12:03:34.852Z,31.43
2018-05-06T12:06:03.680Z,31.34
2018-05-06T12:08:32.450Z,31.47
2018-05-06T12:11:01.218Z,31.52
2018-05-06T12:13:31.592Z,31.21
2018-05-06T12:16:00.551Z,30.85
2018-05-06T12:18:29.393Z,30.76
2018-05-06T12:20:58.141Z,31.04
2018-05-06T12:23:27.006Z,31.49
2018-05-06T12:25:55.779Z,31.45
2018-05-06T12:28:24.497Z,31.35
2018-05-06T12:30:54.015Z,30.95
2018-05-06T12:33:23.592Z,30.30
2018-05-06T12:35:52.399Z,29.61
2018-05-06T12:38:21.180Z,30.62
2018-05-06T12:40:50.015Z,31.01
2018-05-06T12:43:18.804Z,31.29
2018-05-06T12:45:47.569Z,31.20
2018-05-06T12:48:18.181Z,30.98
2018-05-06T12:50:47.233Z,31.01
2018-05-06T12:53:15.954Z,31.23
2018-05-06T12:55:44.824Z,31.37
2018-05-06T12:58:13.585Z,31.15
2018-05-06T13:00:42.305Z,30.08
2018-05-06T13:03:11.066Z,29.83
2018-05-06T13:05:39.941Z,29.46
2018-05-06T13:08:08.686Z,29.74
2018-05-06T13:10:38.248Z,29.75
2018-05-06T13:13:07.084Z,29.79
2018-05-06T13:15:36.636Z,30.43
2018-05-06T13:18:05.414Z,30.92
2018-05-06T13:20:34.192Z,31.19
2018-05-06T13:23:02.908Z,31.01
2018-05-06T13:25:31.683Z,30.70
2018-05-06T13:28:00.501Z,29.94
2018-05-06T13:30:29.221Z,29.61
2018-05-06T13:32:58.023Z,29.99
2018-05-06T13:35:26.780Z,29.40
2018-05-06T13:37:56.316Z,29.83
2018-05-06T13:40:25.090Z,29.92
2018-05-06T13:42:54.603Z,30.26
2018-05-06T13:45:24.119Z,30.56
2018-05-06T13:47:52.872Z,30.62
2018-05-06T13:50:22.163Z,30.70
2018-05-06T13:52:50.905Z,30.86
2018-05-06T13:55:19.713Z,30.80
2018-05-06T13:57:48.765Z,30.84
2018-05-06T14:00:19.383Z,30.61
2018-05-06T14:02:48.580Z,30.26
2018-05-06T14:05:17.308Z,29.78
2018-05-06T14:07:46.831Z,30.15
2018-05-06T14:10:15.581Z,30.57
2018-05-06T14:12:44.433Z,30.66
2018-05-06T14:15:13.188Z,30.54
2018-05-06T14:17:41.950Z,30.45
2018-05-06T14:20:11.469Z,29.73
2018-05-06T14:22:40.211Z,29.98
2018-05-06T14:25:08.986Z,29.94
2018-05-06T14:27:37.733Z,30.48
2018-05-06T14:30:06.636Z,30.47
2018-05-06T14:32:35.341Z,31.06
2018-05-06T14:35:04.121Z,30.51
2018-05-06T14:37:32.840Z,30.60
2018-05-06T14:40:01.665Z,30.76
2018-05-06T14:42:30.416Z,30.51
2018-05-06T14:44:59.156Z,30.59
2018-05-06T14:47:39.548Z,30.65
2018-05-06T14:50:08.278Z,30.01
2018-05-06T14:52:37.636Z,29.95
2018-05-06T14:55:06.420Z,29.12
2018-05-06T14:57:37.548Z,28.51
2018-05-06T15:00:06.334Z,28.49
2018-05-06T15:02:35.050Z,28.93
2018-05-06T15:05:03.838Z,29.09
2018-05-06T15:07:32.593Z,29.61
2018-05-06T15:10:01.349Z,30.10
2018-05-06T15:12:30.086Z,30.04
2018-05-06T15:14:59.021Z,29.73
2018-05-06T15:17:28.572Z,29.32
2018-05-06T15:19:58.119Z,29.43
2018-05-06T15:22:26.869Z,29.80
2018-05-06T15:24:57.191Z,29.76
2018-05-06T15:27:26.049Z,29.38
2018-05-06T15:29:54.834Z,29.47
2018-05-06T15:32:23.565Z,29.52
2018-05-06T15:34:53.300Z,29.34
2018-05-06T15:37:22.053Z,29.08
2018-05-06T15:39:50.788Z,28.93
2018-05-06T15:42:19.547Z,29.13
2018-05-06T15:44:49.129Z,29.00
2018-05-06T15:47:17.863Z,29.13
2018-05-06T15:49:46.658Z,28.91
2018-05-06T15:52:15.578Z,28.48
2018-05-06T15:54:44.313Z,28.33
2018-05-06T15:57:13.067Z,28.20
2018-05-06T15:59:42.600Z,27.57
2018-05-06T16:05:12.252Z,26.71
2018-05-06T16:07:41.019Z,26.85
2018-05-06T16:10:09.784Z,26.72
2018-05-06T16:12:38.628Z,26.94
2018-05-06T16:15:07.403Z,26.81
2018-05-06T16:17:37.003Z,26.50
2018-05-06T16:20:05.670Z,26.50
2018-05-06T16:22:38.414Z,26.28
2018-05-06T16:25:17.328Z,26.36
2018-05-06T16:27:53.213Z,26.41
2018-05-06T16:30:27.113Z,26.35
2018-05-06T16:33:02.649Z,26.58
2018-05-06T16:35:37.421Z,26.62
2018-05-06T16:38:13.511Z,26.39
2018-05-06T16:40:48.038Z,26.27
2018-05-06T16:43:20.089Z,26.38
2018-05-06T16:45:55.330Z,26.48
2018-05-06T16:48:27.224Z,26.27
2018-05-06T16:51:02.506Z,26.31
2018-05-06T16:53:37.986Z,26.37
2018-05-06T16:56:15.422Z,26.23
2018-05-06T16:58:51.003Z,26.11
2018-05-06T17:01:21.973Z,25.88
2018-05-06T17:03:55.854Z,25.87
2018-05-06T17:06:31.322Z,25.74
2018-05-06T17:09:06.355Z,25.59
2018-05-06T17:11:41.623Z,25.37
2018-05-06T17:14:18.839Z,25.11
2018-05-06T17:16:55.580Z,24.99
2018-05-06T17:19:29.242Z,24.98
2018-05-06T17:22:03.020Z,24.80
2018-05-06T17:24:38.272Z,24.79
2018-05-06T17:27:13.699Z,24.77
2018-05-06T17:29:49.975Z,24.66
2018-05-06T17:35:14.174Z,24.83
2018-05-06T17:37:49.811Z,24.78
2018-05-06T17:40:28.693Z,24.79
2018-05-06T17:43:07.001Z,24.71
2018-05-06T17:45:39.716Z,24.52
2018-05-06T17:48:18.610Z,24.38
2018-05-06T17:50:55.660Z,24.27
2018-05-06T17:53:27.719Z,24.12
2018-05-06T17:56:01.244Z,23.75
2018-05-06T17:58:35.582Z,23.56
2018-05-06T18:06:24.729Z,23.53
2018-05-06T18:08:58.559Z,23.42
2018-05-06T18:11:31.820Z,23.41
2018-05-06T18:14:09.800Z,23.38
2018-05-06T18:16:44.114Z,23.26
2018-05-06T18:19:19.750Z,23.03
2018-05-06T18:21:50.581Z,22.84
2018-05-06T18:24:25.069Z,22.87
2018-05-06T18:26:59.477Z,22.74
2018-05-06T18:29:34.556Z,22.64
2018-05-06T18:32:07.796Z,22.48
2018-05-06T18:34:41.677Z,22.38
2018-05-06T18:37:15.234Z,21.96
2018-05-06T18:39:47.316Z,21.90
2018-05-06T18:42:22.470Z,22.14
2018-05-06T18:44:55.933Z,22.28
2018-05-06T18:47:33.540Z,22.15
2018-05-06T18:50:06.984Z,22.09
2018-05-06T18:52:43.413Z,21.76
2018-05-06T18:55:21.687Z,21.59
2018-05-06T18:57:56.944Z,21.50
2018-05-06T19:00:31.098Z,21.41
2018-05-06T19:06:08.278Z,21.11
2018-05-06T19:08:43.543Z,21.12
2018-05-06T19:14:00.930Z,20.97
2018-05-06T19:16:37.051Z,21.01
2018-05-06T19:19:12.228Z,20.96
2018-05-06T19:21:47.506Z,20.71
2018-05-06T19:24:24.552Z,20.59
2018-05-06T19:29:40.413Z,20.34
2018-05-06T19:32:16.304Z,20.10
2018-05-06T19:34:46.031Z,19.98
2018-05-06T19:37:14.778Z,20.24
2018-05-06T19:39:43.559Z,20.35
2018-05-06T19:42:13.115Z,20.25
2018-05-06T19:44:43.277Z,20.19
2018-05-06T19:47:17.347Z,20.25
2018-05-06T19:49:46.242Z,19.85
2018-05-06T19:52:15.005Z,19.88
2018-05-06T19:54:43.753Z,20.02
2018-05-06T19:57:13.900Z,20.09
2018-05-06T19:59:43.182Z,20.01
2018-05-06T20:02:13.213Z,19.83
2018-05-06T20:04:42.531Z,19.67
2018-05-06T20:07:12.729Z,19.71
2018-05-06T20:09:42.645Z,19.67
2018-05-06T20:12:11.412Z,19.43
2018-05-06T20:14:40.157Z,19.22
2018-05-06T20:17:09.029Z,18.93
2018-05-06T20:19:38.521Z,19.10
2018-05-06T20:22:07.240Z,18.78
2018-05-06T20:24:36.028Z,18.76
2018-05-06T20:27:05.571Z,18.61
2018-05-06T20:29:34.317Z,18.88
2018-05-06T20:32:03.188Z,18.52
2018-05-06T20:34:31.960Z,18.53
2018-05-06T20:37:01.487Z,18.59
2018-05-06T20:39:30.247Z,18.20
2018-05-06T20:41:59.828Z,18.53
2018-05-06T20:44:28.565Z,18.72
2018-05-06T20:46:59.226Z,18.53
2018-05-06T20:49:29.392Z,18.43
2018-05-06T20:51:58.606Z,18.62
2018-05-06T20:54:28.950Z,18.52
2018-05-06T20:56:58.849Z,18.51
2018-05-06T20:59:29.433Z,18.85
2018-05-06T21:01:58.359Z,19.16
2018-05-06T21:04:27.406Z,18.78
2018-05-06T21:06:56.974Z,18.65
2018-05-06T21:09:25.779Z,18.72
2018-05-06T21:11:55.323Z,18.63
2018-05-06T21:14:24.113Z,18.39
2018-05-06T21:16:52.926Z,18.30
2018-05-06T21:19:21.663Z,18.60
2018-05-06T21:21:51.111Z,18.67
2018-05-06T21:24:20.251Z,18.63
2018-05-06T21:26:49.000Z,18.78
2018-05-06T21:29:17.794Z,18.64
2018-05-06T21:31:52.629Z,18.50
2018-05-06T21:34:28.845Z,18.62
2018-05-06T21:37:05.637Z,18.74
2018-05-06T21:39:37.607Z,18.60
2018-05-06T21:42:12.944Z,18.57
2018-05-06T21:44:54.856Z,18.68
2018-05-06T21:47:35.871Z,18.32
2018-05-06T21:50:12.388Z,18.23
2018-05-06T21:52:44.916Z,18.25
2018-05-06T21:55:23.612Z,18.33
2018-05-06T21:57:59.523Z,18.33
2018-05-06T22:00:31.366Z,18.34
2018-05-06T22:03:06.249Z,18.27
2018-05-06T22:05:40.836Z,17.72
2018-05-06T22:08:15.056Z,17.74
2018-05-06T22:10:47.925Z,17.96
2018-05-06T22:13:28.250Z,18.32
2018-05-06T22:16:01.392Z,18.31
2018-05-06T22:18:36.291Z,18.53
2018-05-06T22:21:11.630Z,18.38
2018-05-06T22:23:44.864Z,17.97
2018-05-06T22:26:21.220Z,17.80
2018-05-06T22:28:55.545Z,18.04
2018-05-06T22:31:30.269Z,18.25
2018-05-06T22:34:06.988Z,18.16
2018-05-06T22:36:41.392Z,17.92
2018-05-06T22:39:16.038Z,17.31
2018-05-06T22:44:32.527Z,17.65
2018-05-06T22:47:04.503Z,17.65
2018-05-06T22:49:41.869Z,17.75
2018-05-06T22:52:14.662Z,17.22
2018-05-06T22:54:50.449Z,17.45
2018-05-06T22:57:23.471Z,17.44
2018-05-06T23:00:00.411Z,17.50
2018-05-06T23:02:36.352Z,17.42
2018-05-06T23:05:07.669Z,17.29
2018-05-06T23:07:42.945Z,17.20
2018-05-06T23:10:24.039Z,17.43
2018-05-06T23:12:59.452Z,17.19
2018-05-06T23:15:33.796Z,17.26
2018-05-06T23:18:11.658Z,17.19
2018-05-06T23:20:46.504Z,17.26
2018-05-06T23:23:19.821Z,17.16
2018-05-06T23:26:01.905Z,17.11
2018-05-06T23:28:38.403Z,17.17
2018-05-06T23:31:15.177Z,16.70
2018-05-06T23:33:47.416Z,16.88
2018-05-06T23:36:23.172Z,16.69
2018-05-06T23:39:01.094Z,16.59
2018-05-06T23:41:38.068Z,16.48
2018-05-06T23:44:15.237Z,16.34
2018-05-06T23:46:50.765Z,16.32
2018-05-06T23:49:24.553Z,16.21
2018-05-06T23:51:59.824Z,16.10
2018-05-06T23:54:35.888Z,15.99
2018-05-06T23:57:10.716Z,16.19
2018-05-06T23:59:45.996Z,16.33
